Terminal Aerodrome Forecast
Issued by NWS

Home | Current Version | Previous Version | Text Only | Print | Product List | Glossary Off
Versions: 1 2 3 4 5 6 7 8 9 10 11 12 13 14 15

000
FTUS43 KUNR 222300
TAFGCC
TAF
KGCC 222328Z 2300/2324 32022G32KT P6SM BKN035 OVC060
     FM230300 32022G32KT 1 1/2SM -SN BR OVC010
     FM231200 33020KT P6SM OVC035=

USA.gov is the U.S. government's official web portal to all federal, state and local government web resources and services.